RYR738W EGGD-EIKN
Flight info
| Callsign | RYR738W |
|---|---|
| Flight time | 0h 54m |
| Altitude | 24000 |
| Route | BCN P4 FELCA L9 NICXI M17 VATRY DCT DUB L18 SUROX DCT EDONO |
| Aircraft | B38M/M-SDE1FGHILORVWXY/HB1 |
Departure
| Time | 2026-05-06 00:44 |
|---|---|
| Airport | Bristol Airport (EGGD) |
Arrival
| Time | 2026-05-06 01:38 |
|---|---|
| Airport | Ireland West Airport Knock (EIKN) |
| Time | Latitude | Longitude | Altitude | Speed | Heading |
|---|---|---|---|---|---|
| 2026-05-06 00:35 | 51.38527 | -2.70896 | 624 ft | 0 kts | 267° |
| 2026-05-06 00:36 | 51.38528 | -2.70889 | 624 ft | 2 kts | 267° |
| 2026-05-06 00:36 | 51.38526 | -2.70853 | 625 ft | 4 kts | 294° |
| 2026-05-06 00:36 | 51.38518 | -2.70836 | 620 ft | 4 kts | 339° |
| 2026-05-06 00:37 | 51.38499 | -2.70831 | 619 ft | 4 kts | 352° |
| 2026-05-06 00:37 | 51.38476 | -2.70818 | 626 ft | 4 kts | 309° |
| 2026-05-06 00:37 | 51.38471 | -2.70785 | 623 ft | 4 kts | 266° |
| 2026-05-06 00:37 | 51.38472 | -2.70754 | 624 ft | 0 kts | 266° |
| 2026-05-06 00:39 | 51.38472 | -2.70757 | 613 ft | 2 kts | 266° |
| 2026-05-06 00:40 | 51.38470 | -2.70826 | 622 ft | 12 kts | 266° |
| 2026-05-06 00:40 | 51.38463 | -2.71011 | 617 ft | 21 kts | 266° |
| 2026-05-06 00:40 | 51.38454 | -2.71260 | 632 ft | 23 kts | 266° |
| 2026-05-06 00:40 | 51.38442 | -2.71540 | 621 ft | 28 kts | 266° |
| 2026-05-06 00:41 | 51.38432 | -2.71834 | 608 ft | 27 kts | 269° |
| 2026-05-06 00:41 | 51.38427 | -2.72141 | 616 ft | 28 kts | 266° |
| 2026-05-06 00:41 | 51.38416 | -2.72449 | 614 ft | 27 kts | 267° |
| 2026-05-06 00:41 | 51.38404 | -2.72761 | 610 ft | 29 kts | 266° |
| 2026-05-06 00:42 | 51.38392 | -2.73079 | 607 ft | 23 kts | 266° |
| 2026-05-06 00:42 | 51.38352 | -2.73311 | 630 ft | 21 kts | 220° |
| 2026-05-06 00:42 | 51.38233 | -2.73313 | 631 ft | 15 kts | 141° |
| 2026-05-06 00:42 | 51.38217 | -2.73222 | 629 ft | 0 kts | 86° |
| 2026-05-06 00:43 | 51.38217 | -2.73200 | 629 ft | 17 kts | 86° |
| 2026-05-06 00:43 | 51.38243 | -2.72551 | 633 ft | 98 kts | 86° |
| 2026-05-06 00:43 | 51.38296 | -2.71077 | 619 ft | 163 kts | 84° |
| 2026-05-06 00:43 | 51.38379 | -2.69155 | 1218 ft | 178 kts | 84° |
| 2026-05-06 00:44 | 51.38435 | -2.67202 | 2346 ft | 172 kts | 86° |
| 2026-05-06 00:44 | 51.38492 | -2.65153 | 3046 ft | 198 kts | 86° |
| 2026-05-06 00:44 | 51.38560 | -2.62797 | 3734 ft | 224 kts | 86° |
| 2026-05-06 00:44 | 51.38639 | -2.60192 | 4593 ft | 244 kts | 86° |
| 2026-05-06 00:45 | 51.38756 | -2.57382 | 5440 ft | 262 kts | 80° |
| 2026-05-06 00:45 | 51.39442 | -2.54645 | 5803 ft | 268 kts | 52° |
| 2026-05-06 00:45 | 51.40873 | -2.52796 | 5932 ft | 267 kts | 23° |
| 2026-05-06 00:45 | 51.42703 | -2.52477 | 6253 ft | 269 kts | 345° |
| 2026-05-06 00:46 | 51.44234 | -2.54088 | 7305 ft | 268 kts | 308° |
| 2026-05-06 00:46 | 51.45088 | -2.56731 | 8324 ft | 274 kts | 291° |
| 2026-05-06 00:46 | 51.45854 | -2.59550 | 9427 ft | 278 kts | 295° |
| 2026-05-06 00:46 | 51.46656 | -2.62401 | 10427 ft | 285 kts | 295° |
| 2026-05-06 00:47 | 51.47506 | -2.65428 | 11070 ft | 303 kts | 295° |
| 2026-05-06 00:47 | 51.48383 | -2.68550 | 11768 ft | 316 kts | 295° |
| 2026-05-06 00:47 | 51.49302 | -2.71821 | 12578 ft | 325 kts | 294° |
| 2026-05-06 00:47 | 51.50231 | -2.75136 | 13562 ft | 328 kts | 294° |
| 2026-05-06 00:48 | 51.51171 | -2.78492 | 14404 ft | 332 kts | 294° |
| 2026-05-06 00:48 | 51.52124 | -2.81897 | 15261 ft | 336 kts | 294° |
| 2026-05-06 00:48 | 51.53088 | -2.85349 | 16034 ft | 340 kts | 294° |
| 2026-05-06 00:48 | 51.54059 | -2.88830 | 16886 ft | 343 kts | 294° |
| 2026-05-06 00:49 | 51.55040 | -2.92353 | 17608 ft | 349 kts | 294° |
| 2026-05-06 00:49 | 51.56034 | -2.95931 | 18356 ft | 352 kts | 293° |
| 2026-05-06 00:49 | 51.57038 | -2.99545 | 19005 ft | 356 kts | 293° |
| 2026-05-06 00:49 | 51.58051 | -3.03197 | 19659 ft | 359 kts | 293° |
| 2026-05-06 00:50 | 51.59072 | -3.06887 | 20304 ft | 363 kts | 293° |
| 2026-05-06 00:50 | 51.60099 | -3.10603 | 20931 ft | 366 kts | 293° |
| 2026-05-06 00:50 | 51.61138 | -3.14370 | 21565 ft | 369 kts | 293° |
| 2026-05-06 00:50 | 51.62185 | -3.18172 | 22191 ft | 373 kts | 293° |
| 2026-05-06 00:51 | 51.63225 | -3.21953 | 22774 ft | 376 kts | 293° |
| 2026-05-06 00:51 | 51.64302 | -3.25876 | 23397 ft | 380 kts | 293° |
| 2026-05-06 00:51 | 51.65357 | -3.29727 | 23900 ft | 383 kts | 293° |
| 2026-05-06 00:51 | 51.66452 | -3.33729 | 24416 ft | 386 kts | 293° |
| 2026-05-06 00:52 | 51.67519 | -3.37634 | 24873 ft | 389 kts | 293° |
| 2026-05-06 00:52 | 51.68613 | -3.41648 | 25366 ft | 392 kts | 293° |
| 2026-05-06 00:52 | 51.69710 | -3.45677 | 25850 ft | 394 kts | 293° |
| 2026-05-06 00:52 | 51.70816 | -3.49748 | 26319 ft | 397 kts | 293° |
| 2026-05-06 00:53 | 51.71926 | -3.53839 | 26782 ft | 400 kts | 293° |
| 2026-05-06 00:53 | 51.73043 | -3.57967 | 27239 ft | 403 kts | 293° |
| 2026-05-06 00:53 | 51.74167 | -3.62124 | 27686 ft | 405 kts | 293° |
| 2026-05-06 00:53 | 51.75295 | -3.66306 | 28140 ft | 408 kts | 293° |
| 2026-05-06 00:54 | 51.76432 | -3.70529 | 28593 ft | 410 kts | 293° |
| 2026-05-06 00:54 | 51.77567 | -3.74751 | 29023 ft | 413 kts | 292° |
| 2026-05-06 00:54 | 51.78710 | -3.79011 | 29440 ft | 416 kts | 292° |
| 2026-05-06 00:54 | 51.79861 | -3.83310 | 29861 ft | 418 kts | 292° |
| 2026-05-06 00:55 | 51.81019 | -3.87640 | 30234 ft | 421 kts | 292° |
| 2026-05-06 00:55 | 51.82182 | -3.91997 | 30553 ft | 423 kts | 293° |
| 2026-05-06 00:55 | 51.83333 | -3.96322 | 30880 ft | 426 kts | 293° |
| 2026-05-06 00:55 | 51.84520 | -4.00788 | 31223 ft | 428 kts | 293° |
| 2026-05-06 00:56 | 51.85679 | -4.05158 | 31546 ft | 430 kts | 293° |
| 2026-05-06 00:56 | 51.86859 | -4.09615 | 31871 ft | 432 kts | 293° |
| 2026-05-06 00:56 | 51.88043 | -4.14097 | 32031 ft | 435 kts | 292° |
| 2026-05-06 00:57 | 51.90403 | -4.23054 | 32021 ft | 432 kts | 292° |
| 2026-05-06 00:57 | 51.92751 | -4.32003 | 32021 ft | 432 kts | 292° |
| 2026-05-06 00:58 | 51.95093 | -4.40959 | 32016 ft | 432 kts | 292° |
| 2026-05-06 00:58 | 51.97423 | -4.49909 | 32023 ft | 430 kts | 292° |
| 2026-05-06 00:59 | 51.99745 | -4.58862 | 32020 ft | 429 kts | 292° |
| 2026-05-06 00:59 | 52.02042 | -4.67757 | 32022 ft | 430 kts | 292° |
| 2026-05-06 01:00 | 52.04342 | -4.76694 | 32023 ft | 426 kts | 292° |
| 2026-05-06 01:00 | 52.06632 | -4.85631 | 32026 ft | 430 kts | 292° |
| 2026-05-06 01:01 | 52.08924 | -4.94608 | 32026 ft | 430 kts | 292° |
| 2026-05-06 01:01 | 52.11197 | -5.03552 | 32025 ft | 427 kts | 292° |
| 2026-05-06 01:02 | 52.13568 | -5.12443 | 32013 ft | 427 kts | 301° |
| 2026-05-06 01:02 | 52.15441 | -5.16162 | 32024 ft | 428 kts | 317° |
| 2026-05-06 01:02 | 52.17892 | -5.18940 | 32044 ft | 431 kts | 330° |
| 2026-05-06 01:03 | 52.23228 | -5.23356 | 32032 ft | 434 kts | 331° |
| 2026-05-06 01:03 | 52.28614 | -5.27796 | 32038 ft | 433 kts | 331° |
| 2026-05-06 01:04 | 52.34007 | -5.32236 | 32041 ft | 434 kts | 331° |
| 2026-05-06 01:04 | 52.39389 | -5.36677 | 32036 ft | 434 kts | 331° |
| 2026-05-06 01:05 | 52.44776 | -5.41135 | 32047 ft | 433 kts | 331° |
| 2026-05-06 01:05 | 52.50148 | -5.45593 | 32032 ft | 433 kts | 331° |
| 2026-05-06 01:06 | 52.55528 | -5.50069 | 32044 ft | 433 kts | 331° |
| 2026-05-06 01:06 | 52.60902 | -5.54554 | 32040 ft | 433 kts | 331° |
| 2026-05-06 01:07 | 52.66267 | -5.59044 | 32040 ft | 432 kts | 330° |
| 2026-05-06 01:07 | 52.71586 | -5.63506 | 32038 ft | 432 kts | 330° |
| 2026-05-06 01:08 | 52.76938 | -5.68012 | 32042 ft | 432 kts | 330° |
| 2026-05-06 01:08 | 52.79425 | -5.70724 | 32022 ft | 427 kts | 316° |
| 2026-05-06 01:08 | 52.81377 | -5.74370 | 32061 ft | 423 kts | 302° |
| 2026-05-06 01:09 | 52.84002 | -5.83059 | 32023 ft | 424 kts | 295° |
| 2026-05-06 01:09 | 52.86634 | -5.91782 | 32068 ft | 424 kts | 295° |
| 2026-05-06 01:10 | 52.89282 | -6.00466 | 32044 ft | 422 kts | 295° |
| 2026-05-06 01:10 | 52.91929 | -6.09155 | 32055 ft | 422 kts | 295° |
| 2026-05-06 01:11 | 52.94550 | -6.17792 | 32047 ft | 421 kts | 295° |
| 2026-05-06 01:11 | 52.97174 | -6.26466 | 32056 ft | 422 kts | 295° |
| 2026-05-06 01:12 | 52.99798 | -6.35173 | 32062 ft | 421 kts | 295° |
| 2026-05-06 01:12 | 53.02414 | -6.43887 | 32066 ft | 421 kts | 295° |
| 2026-05-06 01:13 | 53.05023 | -6.52606 | 32062 ft | 421 kts | 295° |
| 2026-05-06 01:13 | 53.07622 | -6.61326 | 32072 ft | 421 kts | 295° |
| 2026-05-06 01:14 | 53.11500 | -6.74397 | 32057 ft | 420 kts | 295° |
| 2026-05-06 01:14 | 53.14075 | -6.83116 | 32061 ft | 419 kts | 294° |
| 2026-05-06 01:15 | 53.16607 | -6.91722 | 31198 ft | 411 kts | 294° |
| 2026-05-06 01:15 | 53.17850 | -6.95960 | 30379 ft | 404 kts | 294° |
| 2026-05-06 01:15 | 53.19072 | -7.00133 | 29502 ft | 398 kts | 294° |
| 2026-05-06 01:16 | 53.20276 | -7.04254 | 28589 ft | 392 kts | 294° |
| 2026-05-06 01:16 | 53.21462 | -7.08320 | 27730 ft | 387 kts | 295° |
| 2026-05-06 01:16 | 53.22631 | -7.12333 | 26914 ft | 383 kts | 295° |
| 2026-05-06 01:16 | 53.23807 | -7.16371 | 26119 ft | 387 kts | 295° |
| 2026-05-06 01:17 | 53.24990 | -7.20436 | 25323 ft | 391 kts | 295° |
| 2026-05-06 01:17 | 53.26167 | -7.24486 | 24556 ft | 394 kts | 295° |
| 2026-05-06 01:17 | 53.27368 | -7.28626 | 23799 ft | 397 kts | 295° |
| 2026-05-06 01:17 | 53.28567 | -7.32770 | 22937 ft | 399 kts | 295° |
| 2026-05-06 01:18 | 53.29776 | -7.36954 | 22067 ft | 400 kts | 295° |
| 2026-05-06 01:18 | 53.30983 | -7.41143 | 21374 ft | 398 kts | 295° |
| 2026-05-06 01:18 | 53.32167 | -7.45270 | 20963 ft | 389 kts | 295° |
| 2026-05-06 01:18 | 53.33321 | -7.49301 | 20567 ft | 380 kts | 295° |
| 2026-05-06 01:19 | 53.34452 | -7.53258 | 20163 ft | 373 kts | 295° |
| 2026-05-06 01:19 | 53.35558 | -7.57133 | 19763 ft | 367 kts | 295° |
| 2026-05-06 01:19 | 53.36648 | -7.60957 | 19373 ft | 361 kts | 295° |
| 2026-05-06 01:19 | 53.37721 | -7.64726 | 18984 ft | 356 kts | 295° |
| 2026-05-06 01:20 | 53.38775 | -7.68437 | 18596 ft | 351 kts | 295° |
| 2026-05-06 01:20 | 53.39817 | -7.72107 | 18202 ft | 346 kts | 295° |
| 2026-05-06 01:20 | 53.40846 | -7.75735 | 17788 ft | 341 kts | 295° |
| 2026-05-06 01:20 | 53.41853 | -7.79297 | 17418 ft | 336 kts | 295° |
| 2026-05-06 01:21 | 53.42846 | -7.82810 | 17052 ft | 331 kts | 295° |
| 2026-05-06 01:21 | 53.43823 | -7.86273 | 16698 ft | 326 kts | 295° |
| 2026-05-06 01:21 | 53.44783 | -7.89682 | 16350 ft | 321 kts | 295° |
| 2026-05-06 01:21 | 53.45728 | -7.93041 | 16008 ft | 316 kts | 295° |
| 2026-05-06 01:22 | 53.46659 | -7.96355 | 15661 ft | 312 kts | 295° |
| 2026-05-06 01:22 | 53.47579 | -7.99631 | 15330 ft | 308 kts | 295° |
| 2026-05-06 01:22 | 53.48483 | -8.02856 | 14997 ft | 304 kts | 295° |
| 2026-05-06 01:22 | 53.49375 | -8.06047 | 14666 ft | 301 kts | 295° |
| 2026-05-06 01:23 | 53.50259 | -8.09207 | 14342 ft | 297 kts | 295° |
| 2026-05-06 01:23 | 53.51120 | -8.12290 | 14019 ft | 294 kts | 295° |
| 2026-05-06 01:23 | 53.51983 | -8.15383 | 13681 ft | 291 kts | 295° |
| 2026-05-06 01:23 | 53.52836 | -8.18448 | 13334 ft | 287 kts | 295° |
| 2026-05-06 01:24 | 53.53676 | -8.21470 | 13008 ft | 283 kts | 295° |
| 2026-05-06 01:24 | 53.54504 | -8.24455 | 12699 ft | 279 kts | 295° |
| 2026-05-06 01:24 | 53.55322 | -8.27399 | 12396 ft | 276 kts | 295° |
| 2026-05-06 01:24 | 53.55863 | -8.29353 | 12204 ft | 279 kts | 295° |
| 2026-05-06 01:25 | 53.56693 | -8.32348 | 11897 ft | 285 kts | 294° |
| 2026-05-06 01:25 | 53.57807 | -8.36373 | 11480 ft | 287 kts | 294° |
| 2026-05-06 01:25 | 53.58647 | -8.39417 | 11163 ft | 287 kts | 294° |
| 2026-05-06 01:25 | 53.59212 | -8.41465 | 10949 ft | 286 kts | 294° |
| 2026-05-06 01:26 | 53.60049 | -8.44502 | 10634 ft | 286 kts | 294° |
| 2026-05-06 01:26 | 53.60874 | -8.47500 | 10354 ft | 285 kts | 294° |
| 2026-05-06 01:26 | 53.61693 | -8.50479 | 10202 ft | 276 kts | 294° |
| 2026-05-06 01:26 | 53.62483 | -8.53361 | 10050 ft | 267 kts | 294° |
| 2026-05-06 01:27 | 53.63257 | -8.56187 | 9749 ft | 264 kts | 294° |
| 2026-05-06 01:27 | 53.64022 | -8.58983 | 9422 ft | 261 kts | 294° |
| 2026-05-06 01:27 | 53.64777 | -8.61741 | 9124 ft | 258 kts | 294° |
| 2026-05-06 01:27 | 53.65524 | -8.64480 | 8832 ft | 255 kts | 294° |
| 2026-05-06 01:28 | 53.66262 | -8.67186 | 8555 ft | 252 kts | 295° |
| 2026-05-06 01:28 | 53.66991 | -8.69861 | 8278 ft | 252 kts | 295° |
| 2026-05-06 01:28 | 53.67730 | -8.72571 | 8005 ft | 258 kts | 295° |
| 2026-05-06 01:28 | 53.68483 | -8.75341 | 7716 ft | 261 kts | 295° |
| 2026-05-06 01:29 | 53.69240 | -8.78127 | 7409 ft | 262 kts | 295° |
| 2026-05-06 01:29 | 53.69997 | -8.80918 | 7126 ft | 260 kts | 295° |
| 2026-05-06 01:29 | 53.70744 | -8.83676 | 6830 ft | 258 kts | 295° |
| 2026-05-06 01:29 | 53.71484 | -8.86415 | 6578 ft | 253 kts | 295° |
| 2026-05-06 01:30 | 53.72212 | -8.89110 | 6273 ft | 251 kts | 296° |
| 2026-05-06 01:30 | 53.72931 | -8.91774 | 5959 ft | 249 kts | 296° |
| 2026-05-06 01:30 | 53.73644 | -8.94419 | 5697 ft | 244 kts | 296° |
| 2026-05-06 01:30 | 53.74335 | -8.96986 | 5536 ft | 236 kts | 296° |
| 2026-05-06 01:31 | 53.74999 | -8.99455 | 5411 ft | 227 kts | 296° |
| 2026-05-06 01:31 | 53.75640 | -9.01841 | 5268 ft | 219 kts | 296° |
| 2026-05-06 01:31 | 53.76267 | -9.04174 | 5149 ft | 218 kts | 296° |
| 2026-05-06 01:31 | 53.76894 | -9.06512 | 5043 ft | 218 kts | 296° |
| 2026-05-06 01:32 | 53.77779 | -9.08522 | 4845 ft | 214 kts | 326° |
| 2026-05-06 01:32 | 53.79137 | -9.09480 | 4636 ft | 212 kts | 348° |
| 2026-05-06 01:32 | 53.80554 | -9.10025 | 4469 ft | 203 kts | 348° |
| 2026-05-06 01:32 | 53.81887 | -9.10519 | 4253 ft | 195 kts | 348° |
| 2026-05-06 01:33 | 53.83197 | -9.10992 | 4056 ft | 185 kts | 349° |
| 2026-05-06 01:33 | 53.84399 | -9.11419 | 3944 ft | 173 kts | 349° |
| 2026-05-06 01:33 | 53.85554 | -9.11812 | 3768 ft | 167 kts | 353° |
| 2026-05-06 01:33 | 53.86666 | -9.11496 | 3498 ft | 164 kts | 30° |
| 2026-05-06 01:34 | 53.87444 | -9.10126 | 3278 ft | 165 kts | 62° |
| 2026-05-06 01:34 | 53.87790 | -9.08272 | 3148 ft | 165 kts | 74° |
| 2026-05-06 01:34 | 53.88048 | -9.06372 | 3104 ft | 166 kts | 75° |
| 2026-05-06 01:34 | 53.88298 | -9.04462 | 2973 ft | 166 kts | 75° |
| 2026-05-06 01:35 | 53.88542 | -9.02552 | 2790 ft | 165 kts | 75° |
| 2026-05-06 01:35 | 53.88781 | -9.00700 | 2621 ft | 152 kts | 75° |
| 2026-05-06 01:35 | 53.88992 | -8.99031 | 2496 ft | 141 kts | 76° |
| 2026-05-06 01:35 | 53.89185 | -8.97420 | 2329 ft | 138 kts | 76° |
| 2026-05-06 01:36 | 53.89374 | -8.95833 | 2170 ft | 137 kts | 76° |
| 2026-05-06 01:36 | 53.89562 | -8.94252 | 2008 ft | 137 kts | 76° |
| 2026-05-06 01:36 | 53.89749 | -8.92676 | 1812 ft | 136 kts | 76° |
| 2026-05-06 01:36 | 53.89932 | -8.91136 | 1604 ft | 135 kts | 76° |
| 2026-05-06 01:37 | 53.90117 | -8.89578 | 1422 ft | 135 kts | 76° |
| 2026-05-06 01:37 | 53.90301 | -8.88023 | 1234 ft | 135 kts | 76° |
| 2026-05-06 01:37 | 53.90487 | -8.86457 | 1020 ft | 136 kts | 77° |
| 2026-05-06 01:37 | 53.90671 | -8.84865 | 845 ft | 138 kts | 77° |
| 2026-05-06 01:38 | 53.90859 | -8.83289 | 682 ft | 133 kts | 77° |
| 2026-05-06 01:38 | 53.91017 | -8.81970 | 652 ft | 85 kts | 78° |
| 2026-05-06 01:38 | 53.91107 | -8.81195 | 651 ft | 41 kts | 79° |
| 2026-05-06 01:38 | 53.91148 | -8.80884 | 655 ft | 11 kts | 56° |
| 2026-05-06 01:39 | 53.91216 | -8.80880 | 653 ft | 13 kts | 349° |
| 2026-05-06 01:39 | 53.91295 | -8.80905 | 652 ft | 9 kts | 349° |
| 2026-05-06 01:39 | 53.91345 | -8.80922 | 652 ft | 5 kts | 348° |
| 2026-05-06 01:39 | 53.91357 | -8.80926 | 652 ft | 1 kts | 348° |
| 2026-05-06 01:40 | 53.91358 | -8.80926 | 652 ft | 0 kts | 348° |
| 2026-05-06 01:41 | 53.91371 | -8.80931 | 652 ft | 4 kts | 347° |
| 2026-05-06 01:41 | 53.91401 | -8.80955 | 652 ft | 4 kts | 304° |
| 2026-05-06 01:42 | 53.91403 | -8.80990 | 652 ft | 2 kts | 259° |
| 2026-05-06 01:42 | 53.91401 | -8.81006 | 652 ft | 0 kts | 258° |